Holly, Michigan
Current Conditions -  °F | °C
As of 5:53 AM on Wednesday 22 Oct 2014 (Local Time) from KFNT Reporting Station
Overcast Overcast  
Wind Chill: 40°   Ceiling: 1900
Heat Index: 45°   Visibility: 10mi
Dew Point: 37°   Wind: 9mph
Humidity: 74%   Direction: 20°NNE
Pressure: 30.3"   Gusts: NA
Location:  42.79°N, 83.63°W
Report Text: KFNT 220953Z 02008KT 10SM OVC019 07/03 A3030 RMK AO2 SLP264 T00720028
Loading
Personal Weather Stations






























Interactive Weather Map
Tropical Storm Tracking
New forecast layout! Learn more

10-Day Weather Forecast

Advertisements
Track Severe Weather on mobile